sensor_id;sensor_type;location;lat;lon;timestamp;P1;durP1;ratioP1;P2;durP2;ratioP2
40637;SDS011;26336;44.696;10.622;2023-02-28T00:01:14;16.03;;;10.67;;
40637;SDS011;26336;44.696;10.622;2023-02-28T00:04:18;17.27;;;11.00;;
40637;SDS011;26336;44.696;10.622;2023-02-28T00:07:22;19.27;;;10.93;;
40637;SDS011;26336;44.696;10.622;2023-02-28T00:10:28;17.07;;;10.40;;
40637;SDS011;26336;44.696;10.622;2023-02-28T00:13:34;16.47;;;10.50;;
40637;SDS011;26336;44.696;10.622;2023-02-28T00:16:40;12.57;;;10.00;;
40637;SDS011;26336;44.696;10.622;2023-02-28T00:19:44;14.40;;;10.20;;
40637;SDS011;26336;44.696;10.622;2023-02-28T00:22:48;16.17;;;10.03;;
40637;SDS011;26336;44.696;10.622;2023-02-28T00:25:54;14.27;;;9.83;;
40637;SDS011;26336;44.696;10.622;2023-02-28T00:28:58;16.43;;;10.47;;
40637;SDS011;26336;44.696;10.622;2023-02-28T00:32:02;17.63;;;10.03;;
40637;SDS011;26336;44.696;10.622;2023-02-28T00:35:08;16.37;;;10.43;;
40637;SDS011;26336;44.696;10.622;2023-02-28T00:38:14;16.97;;;10.23;;
40637;SDS011;26336;44.696;10.622;2023-02-28T00:41:18;15.70;;;10.13;;
40637;SDS011;26336;44.696;10.622;2023-02-28T00:44:24;16.17;;;10.20;;
40637;SDS011;26336;44.696;10.622;2023-02-28T00:47:28;15.70;;;9.87;;
40637;SDS011;26336;44.696;10.622;2023-02-28T00:50:32;15.40;;;9.13;;
40637;SDS011;26336;44.696;10.622;2023-02-28T00:53:36;20.10;;;9.60;;
40637;SDS011;26336;44.696;10.622;2023-02-28T00:56:39;14.87;;;7.87;;
40637;SDS011;26336;44.696;10.622;2023-02-28T00:59:43;13.80;;;8.73;;
40637;SDS011;26336;44.696;10.622;2023-02-28T01:02:48;14.50;;;9.27;;
40637;SDS011;26336;44.696;10.622;2023-02-28T01:05:51;15.77;;;8.00;;
40637;SDS011;26336;44.696;10.622;2023-02-28T01:08:58;14.87;;;9.17;;
40637;SDS011;26336;44.696;10.622;2023-02-28T01:12:02;14.53;;;8.70;;
40637;SDS011;26336;44.696;10.622;2023-02-28T01:15:10;13.90;;;7.50;;
40637;SDS011;26336;44.696;10.622;2023-02-28T01:18:14;14.37;;;8.23;;
40637;SDS011;26336;44.696;10.622;2023-02-28T01:21:19;13.80;;;8.47;;
40637;SDS011;26336;44.696;10.622;2023-02-28T01:24:24;15.17;;;8.47;;
40637;SDS011;26336;44.696;10.622;2023-02-28T01:27:28;12.23;;;7.90;;
40637;SDS011;26336;44.696;10.622;2023-02-28T01:30:32;13.80;;;7.90;;
40637;SDS011;26336;44.696;10.622;2023-02-28T01:33:36;12.27;;;8.23;;
40637;SDS011;26336;44.696;10.622;2023-02-28T01:36:41;14.87;;;8.60;;
40637;SDS011;26336;44.696;10.622;2023-02-28T01:39:45;13.40;;;8.20;;
40637;SDS011;26336;44.696;10.622;2023-02-28T01:42:49;13.33;;;8.67;;
40637;SDS011;26336;44.696;10.622;2023-02-28T01:45:53;12.93;;;8.03;;
40637;SDS011;26336;44.696;10.622;2023-02-28T01:49:04;14.87;;;9.00;;
40637;SDS011;26336;44.696;10.622;2023-02-28T01:52:16;12.30;;;8.60;;
40637;SDS011;26336;44.696;10.622;2023-02-28T01:55:24;13.03;;;8.73;;
40637;SDS011;26336;44.696;10.622;2023-02-28T01:58:33;13.83;;;8.00;;
40637;SDS011;26336;44.696;10.622;2023-02-28T02:01:39;15.37;;;9.23;;
40637;SDS011;26336;44.696;10.622;2023-02-28T02:04:50;11.37;;;8.17;;
40637;SDS011;26336;44.696;10.622;2023-02-28T02:08:11;11.80;;;8.77;;
40637;SDS011;26336;44.696;10.622;2023-02-28T02:11:19;11.73;;;8.53;;
40637;SDS011;26336;44.696;10.622;2023-02-28T02:18:11;13.83;;;9.33;;
40637;SDS011;26336;44.696;10.622;2023-02-28T02:25:11;13.03;;;8.37;;
40637;SDS011;26336;44.696;10.622;2023-02-28T02:31:54;13.77;;;9.07;;
40637;SDS011;26336;44.696;10.622;2023-02-28T02:38:38;14.23;;;8.93;;
40637;SDS011;26336;44.696;10.622;2023-02-28T02:41:51;10.83;;;8.80;;
40637;SDS011;26336;44.696;10.622;2023-02-28T02:45:01;14.87;;;9.57;;
40637;SDS011;26336;44.696;10.622;2023-02-28T02:48:15;11.47;;;8.93;;
40637;SDS011;26336;44.696;10.622;2023-02-28T02:51:23;13.33;;;9.63;;
40637;SDS011;26336;44.696;10.622;2023-02-28T02:54:30;14.63;;;9.27;;
40637;SDS011;26336;44.696;10.622;2023-02-28T02:57:47;12.70;;;9.30;;
40637;SDS011;26336;44.696;10.622;2023-02-28T03:01:00;11.57;;;9.67;;
40637;SDS011;26336;44.696;10.622;2023-02-28T03:04:10;13.30;;;9.23;;
40637;SDS011;26336;44.696;10.622;2023-02-28T03:07:17;13.03;;;10.00;;
40637;SDS011;26336;44.696;10.622;2023-02-28T03:23:48;12.53;;;10.00;;
40637;SDS011;26336;44.696;10.622;2023-02-28T03:26:58;12.67;;;9.50;;
40637;SDS011;26336;44.696;10.622;2023-02-28T03:30:14;12.93;;;9.53;;
40637;SDS011;26336;44.696;10.622;2023-02-28T03:33:34;11.60;;;9.60;;
40637;SDS011;26336;44.696;10.622;2023-02-28T03:36:46;14.32;;;10.48;;
40637;SDS011;26336;44.696;10.622;2023-02-28T03:39:56;12.83;;;9.93;;
40637;SDS011;26336;44.696;10.622;2023-02-28T03:43:23;13.13;;;9.90;;
40637;SDS011;26336;44.696;10.622;2023-02-28T03:46:34;11.20;;;8.87;;
40637;SDS011;26336;44.696;10.622;2023-02-28T03:49:52;13.67;;;10.10;;
40637;SDS011;26336;44.696;10.622;2023-02-28T03:56:33;15.70;;;10.23;;
40637;SDS011;26336;44.696;10.622;2023-02-28T04:03:31;13.93;;;10.77;;
40637;SDS011;26336;44.696;10.622;2023-02-28T04:06:35;13.43;;;10.17;;
40637;SDS011;26336;44.696;10.622;2023-02-28T04:09:40;14.50;;;10.50;;
40637;SDS011;26336;44.696;10.622;2023-02-28T04:12:44;14.23;;;10.47;;
40637;SDS011;26336;44.696;10.622;2023-02-28T04:15:48;14.13;;;10.13;;
40637;SDS011;26336;44.696;10.622;2023-02-28T04:18:52;13.87;;;10.23;;
40637;SDS011;26336;44.696;10.622;2023-02-28T04:21:56;15.87;;;11.30;;
40637;SDS011;26336;44.696;10.622;2023-02-28T04:25:00;13.30;;;10.67;;
40637;SDS011;26336;44.696;10.622;2023-02-28T04:28:04;14.63;;;9.57;;
40637;SDS011;26336;44.696;10.622;2023-02-28T04:31:08;13.40;;;9.47;;
40637;SDS011;26336;44.696;10.622;2023-02-28T04:34:12;15.17;;;10.40;;
40637;SDS011;26336;44.696;10.622;2023-02-28T04:37:16;16.50;;;10.60;;
40637;SDS011;26336;44.696;10.622;2023-02-28T04:40:20;14.47;;;10.57;;
40637;SDS011;26336;44.696;10.622;2023-02-28T04:43:28;14.97;;;10.03;;
40637;SDS011;26336;44.696;10.622;2023-02-28T04:46:32;11.80;;;9.80;;
40637;SDS011;26336;44.696;10.622;2023-02-28T04:49:36;13.97;;;9.87;;
40637;SDS011;26336;44.696;10.622;2023-02-28T04:52:41;13.17;;;9.73;;
40637;SDS011;26336;44.696;10.622;2023-02-28T04:55:45;13.03;;;10.00;;
40637;SDS011;26336;44.696;10.622;2023-02-28T04:58:49;11.47;;;9.50;;
40637;SDS011;26336;44.696;10.622;2023-02-28T05:01:55;14.13;;;9.83;;
40637;SDS011;26336;44.696;10.622;2023-02-28T05:04:58;13.57;;;9.60;;
40637;SDS011;26336;44.696;10.622;2023-02-28T05:08:03;14.17;;;9.50;;
40637;SDS011;26336;44.696;10.622;2023-02-28T05:11:16;13.43;;;9.93;;
40637;SDS011;26336;44.696;10.622;2023-02-28T05:14:25;13.40;;;9.50;;
40637;SDS011;26336;44.696;10.622;2023-02-28T05:17:29;14.07;;;9.17;;
40637;SDS011;26336;44.696;10.622;2023-02-28T05:20:33;12.70;;;9.67;;
40637;SDS011;26336;44.696;10.622;2023-02-28T05:23:37;14.10;;;10.33;;
40637;SDS011;26336;44.696;10.622;2023-02-28T05:26:41;13.27;;;10.37;;
40637;SDS011;26336;44.696;10.622;2023-02-28T05:29:46;14.30;;;9.27;;
40637;SDS011;26336;44.696;10.622;2023-02-28T05:32:50;14.93;;;10.50;;
40637;SDS011;26336;44.696;10.622;2023-02-28T05:35:55;16.83;;;11.03;;
40637;SDS011;26336;44.696;10.622;2023-02-28T05:38:59;13.43;;;10.53;;
40637;SDS011;26336;44.696;10.622;2023-02-28T05:42:03;14.53;;;10.00;;
40637;SDS011;26336;44.696;10.622;2023-02-28T05:45:07;14.17;;;10.10;;
40637;SDS011;26336;44.696;10.622;2023-02-28T05:48:11;15.27;;;9.57;;
40637;SDS011;26336;44.696;10.622;2023-02-28T05:51:15;13.07;;;9.63;;
40637;SDS011;26336;44.696;10.622;2023-02-28T05:54:20;11.87;;;9.50;;
40637;SDS011;26336;44.696;10.622;2023-02-28T05:57:24;14.20;;;9.77;;
40637;SDS011;26336;44.696;10.622;2023-02-28T06:00:28;14.77;;;9.80;;
40637;SDS011;26336;44.696;10.622;2023-02-28T06:03:32;13.93;;;10.13;;
40637;SDS011;26336;44.696;10.622;2023-02-28T06:06:36;13.57;;;10.27;;
40637;SDS011;26336;44.696;10.622;2023-02-28T06:09:40;12.07;;;9.03;;
40637;SDS011;26336;44.696;10.622;2023-02-28T06:12:44;14.73;;;10.60;;
40637;SDS011;26336;44.696;10.622;2023-02-28T06:15:48;17.43;;;10.80;;
40637;SDS011;26336;44.696;10.622;2023-02-28T06:18:52;21.63;;;10.53;;
40637;SDS011;26336;44.696;10.622;2023-02-28T06:21:59;14.47;;;10.87;;
40637;SDS011;26336;44.696;10.622;2023-02-28T06:25:03;18.00;;;12.13;;
40637;SDS011;26336;44.696;10.622;2023-02-28T06:28:09;15.00;;;11.77;;
40637;SDS011;26336;44.696;10.622;2023-02-28T06:31:15;19.30;;;13.73;;
40637;SDS011;26336;44.696;10.622;2023-02-28T06:34:20;15.77;;;11.10;;
40637;SDS011;26336;44.696;10.622;2023-02-28T06:37:24;16.87;;;12.27;;
40637;SDS011;26336;44.696;10.622;2023-02-28T06:40:30;16.23;;;11.07;;
40637;SDS011;26336;44.696;10.622;2023-02-28T06:43:38;15.93;;;11.73;;
40637;SDS011;26336;44.696;10.622;2023-02-28T06:46:44;16.57;;;11.60;;
40637;SDS011;26336;44.696;10.622;2023-02-28T06:49:49;19.43;;;12.67;;
40637;SDS011;26336;44.696;10.622;2023-02-28T06:52:53;15.87;;;11.90;;
40637;SDS011;26336;44.696;10.622;2023-02-28T06:55:58;21.03;;;12.20;;
40637;SDS011;26336;44.696;10.622;2023-02-28T06:59:04;20.37;;;11.93;;
40637;SDS011;26336;44.696;10.622;2023-02-28T07:02:08;17.30;;;12.70;;
40637;SDS011;26336;44.696;10.622;2023-02-28T07:05:12;16.80;;;11.60;;
40637;SDS011;26336;44.696;10.622;2023-02-28T07:08:16;14.67;;;11.20;;
40637;SDS011;26336;44.696;10.622;2023-02-28T07:11:21;16.07;;;12.10;;
40637;SDS011;26336;44.696;10.622;2023-02-28T07:14:26;18.43;;;12.07;;
40637;SDS011;26336;44.696;10.622;2023-02-28T07:17:30;18.70;;;13.17;;
40637;SDS011;26336;44.696;10.622;2023-02-28T07:20:34;17.37;;;11.50;;
40637;SDS011;26336;44.696;10.622;2023-02-28T07:23:39;16.90;;;12.93;;
40637;SDS011;26336;44.696;10.622;2023-02-28T07:26:44;16.03;;;11.87;;
40637;SDS011;26336;44.696;10.622;2023-02-28T07:29:49;15.50;;;12.10;;
40637;SDS011;26336;44.696;10.622;2023-02-28T07:32:53;15.77;;;12.67;;
40637;SDS011;26336;44.696;10.622;2023-02-28T07:36:32;18.47;;;12.60;;
40637;SDS011;26336;44.696;10.622;2023-02-28T07:39:29;14.90;;;12.30;;
40637;SDS011;26336;44.696;10.622;2023-02-28T07:42:34;20.43;;;12.43;;
40637;SDS011;26336;44.696;10.622;2023-02-28T07:45:41;16.43;;;12.73;;
40637;SDS011;26336;44.696;10.622;2023-02-28T07:48:46;19.07;;;13.40;;
40637;SDS011;26336;44.696;10.622;2023-02-28T07:51:50;15.70;;;13.17;;
40637;SDS011;26336;44.696;10.622;2023-02-28T07:54:54;18.47;;;11.50;;
40637;SDS011;26336;44.696;10.622;2023-02-28T07:57:58;21.10;;;12.87;;
40637;SDS011;26336;44.696;10.622;2023-02-28T08:01:05;17.03;;;12.30;;
40637;SDS011;26336;44.696;10.622;2023-02-28T08:04:11;17.97;;;12.37;;
40637;SDS011;26336;44.696;10.622;2023-02-28T08:07:15;15.60;;;11.63;;
40637;SDS011;26336;44.696;10.622;2023-02-28T08:10:21;21.83;;;13.63;;
40637;SDS011;26336;44.696;10.622;2023-02-28T08:13:25;19.40;;;13.67;;
40637;SDS011;26336;44.696;10.622;2023-02-28T08:16:30;18.80;;;13.90;;
40637;SDS011;26336;44.696;10.622;2023-02-28T08:19:34;18.50;;;13.80;;
40637;SDS011;26336;44.696;10.622;2023-02-28T08:22:38;18.57;;;13.77;;
40637;SDS011;26336;44.696;10.622;2023-02-28T08:25:42;18.40;;;12.90;;
40637;SDS011;26336;44.696;10.622;2023-02-28T08:28:46;16.73;;;12.97;;
40637;SDS011;26336;44.696;10.622;2023-02-28T08:31:49;16.33;;;12.73;;
40637;SDS011;26336;44.696;10.622;2023-02-28T08:34:53;18.63;;;13.33;;
40637;SDS011;26336;44.696;10.622;2023-02-28T08:37:58;17.57;;;13.07;;
40637;SDS011;26336;44.696;10.622;2023-02-28T08:41:06;19.00;;;14.00;;
40637;SDS011;26336;44.696;10.622;2023-02-28T08:44:13;17.53;;;13.13;;
40637;SDS011;26336;44.696;10.622;2023-02-28T08:47:16;20.70;;;13.30;;
40637;SDS011;26336;44.696;10.622;2023-02-28T08:50:20;18.33;;;14.03;;
40637;SDS011;26336;44.696;10.622;2023-02-28T08:53:25;22.23;;;14.27;;
40637;SDS011;26336;44.696;10.622;2023-02-28T08:56:29;16.23;;;12.60;;
40637;SDS011;26336;44.696;10.622;2023-02-28T08:59:34;19.17;;;14.30;;
40637;SDS011;26336;44.696;10.622;2023-02-28T09:02:40;22.27;;;13.50;;
40637;SDS011;26336;44.696;10.622;2023-02-28T09:05:56;17.37;;;12.57;;
40637;SDS011;26336;44.696;10.622;2023-02-28T09:09:02;17.47;;;13.47;;
40637;SDS011;26336;44.696;10.622;2023-02-28T09:12:09;18.53;;;14.90;;
40637;SDS011;26336;44.696;10.622;2023-02-28T09:15:13;21.17;;;14.00;;
40637;SDS011;26336;44.696;10.622;2023-02-28T09:18:17;18.30;;;13.73;;
40637;SDS011;26336;44.696;10.622;2023-02-28T09:21:21;19.53;;;13.30;;
40637;SDS011;26336;44.696;10.622;2023-02-28T09:24:24;19.70;;;14.43;;
40637;SDS011;26336;44.696;10.622;2023-02-28T09:27:28;18.50;;;13.20;;
40637;SDS011;26336;44.696;10.622;2023-02-28T09:30:32;17.23;;;13.13;;
40637;SDS011;26336;44.696;10.622;2023-02-28T09:33:37;17.67;;;12.67;;
40637;SDS011;26336;44.696;10.622;2023-02-28T09:36:40;17.80;;;13.23;;
40637;SDS011;26336;44.696;10.622;2023-02-28T09:39:44;18.47;;;12.77;;
40637;SDS011;26336;44.696;10.622;2023-02-28T09:42:49;17.57;;;13.90;;
40637;SDS011;26336;44.696;10.622;2023-02-28T09:45:59;16.97;;;13.20;;
40637;SDS011;26336;44.696;10.622;2023-02-28T09:49:24;20.87;;;14.03;;
40637;SDS011;26336;44.696;10.622;2023-02-28T09:52:34;36.23;;;16.03;;
40637;SDS011;26336;44.696;10.622;2023-02-28T09:55:42;172.53;;;32.87;;
40637;SDS011;26336;44.696;10.622;2023-02-28T09:59:02;21.53;;;14.47;;
40637;SDS011;26336;44.696;10.622;2023-02-28T10:05:51;18.10;;;14.27;;
40637;SDS011;26336;44.696;10.622;2023-02-28T10:12:33;19.77;;;14.07;;
40637;SDS011;26336;44.696;10.622;2023-02-28T10:15:39;18.23;;;14.23;;
40637;SDS011;26336;44.696;10.622;2023-02-28T10:18:52;18.37;;;14.03;;
40637;SDS011;26336;44.696;10.622;2023-02-28T10:22:03;19.67;;;14.07;;
40637;SDS011;26336;44.696;10.622;2023-02-28T10:25:16;24.70;;;14.53;;
40637;SDS011;26336;44.696;10.622;2023-02-28T10:28:24;19.53;;;13.60;;
40637;SDS011;26336;44.696;10.622;2023-02-28T10:31:29;19.30;;;14.00;;
40637;SDS011;26336;44.696;10.622;2023-02-28T10:34:33;19.03;;;14.00;;
40637;SDS011;26336;44.696;10.622;2023-02-28T10:37:37;18.43;;;14.40;;
40637;SDS011;26336;44.696;10.622;2023-02-28T10:40:45;23.53;;;13.80;;
40637;SDS011;26336;44.696;10.622;2023-02-28T10:43:49;17.73;;;13.90;;
40637;SDS011;26336;44.696;10.622;2023-02-28T10:46:53;16.87;;;13.77;;
40637;SDS011;26336;44.696;10.622;2023-02-28T10:49:58;16.70;;;13.87;;
40637;SDS011;26336;44.696;10.622;2023-02-28T10:53:07;22.40;;;15.03;;
40637;SDS011;26336;44.696;10.622;2023-02-28T10:56:30;20.20;;;13.00;;
40637;SDS011;26336;44.696;10.622;2023-02-28T10:59:34;16.27;;;14.43;;
40637;SDS011;26336;44.696;10.622;2023-02-28T11:02:38;17.97;;;14.13;;
40637;SDS011;26336;44.696;10.622;2023-02-28T11:05:46;18.80;;;14.13;;
40637;SDS011;26336;44.696;10.622;2023-02-28T11:08:52;21.27;;;14.33;;
40637;SDS011;26336;44.696;10.622;2023-02-28T11:11:57;20.63;;;14.47;;
40637;SDS011;26336;44.696;10.622;2023-02-28T11:15:05;20.03;;;14.47;;
40637;SDS011;26336;44.696;10.622;2023-02-28T11:18:33;16.93;;;13.17;;
40637;SDS011;26336;44.696;10.622;2023-02-28T11:21:47;23.43;;;14.80;;
40637;SDS011;26336;44.696;10.622;2023-02-28T11:25:01;17.50;;;14.37;;
40637;SDS011;26336;44.696;10.622;2023-02-28T11:28:24;19.47;;;14.57;;
40637;SDS011;26336;44.696;10.622;2023-02-28T11:31:38;17.50;;;13.77;;
40637;SDS011;26336;44.696;10.622;2023-02-28T11:34:42;17.57;;;14.17;;
40637;SDS011;26336;44.696;10.622;2023-02-28T11:37:48;18.83;;;14.87;;
40637;SDS011;26336;44.696;10.622;2023-02-28T11:57:16;20.03;;;14.83;;
40637;SDS011;26336;44.696;10.622;2023-02-28T12:04:28;18.87;;;14.70;;
40637;SDS011;26336;44.696;10.622;2023-02-28T12:28:09;17.17;;;14.03;;
40637;SDS011;26336;44.696;10.622;2023-02-28T12:34:28;17.43;;;14.00;;
40637;SDS011;26336;44.696;10.622;2023-02-28T12:37:41;19.98;;;14.48;;
40637;SDS011;26336;44.696;10.622;2023-02-28T12:44:09;19.02;;;13.73;;
40637;SDS011;26336;44.696;10.622;2023-02-28T12:47:17;16.87;;;13.97;;
40637;SDS011;26336;44.696;10.622;2023-02-28T12:50:21;18.50;;;14.87;;
40637;SDS011;26336;44.696;10.622;2023-02-28T12:53:29;22.20;;;15.70;;
40637;SDS011;26336;44.696;10.622;2023-02-28T12:56:47;20.20;;;15.33;;
40637;SDS011;26336;44.696;10.622;2023-02-28T12:59:59;77.27;;;22.83;;
40637;SDS011;26336;44.696;10.622;2023-02-28T13:10:43;19.37;;;14.60;;
40637;SDS011;26336;44.696;10.622;2023-02-28T13:13:58;20.60;;;16.60;;
40637;SDS011;26336;44.696;10.622;2023-02-28T13:20:31;21.13;;;15.73;;
40637;SDS011;26336;44.696;10.622;2023-02-28T13:37:47;21.00;;;15.93;;
40637;SDS011;26336;44.696;10.622;2023-02-28T13:40:33;22.17;;;16.47;;
40637;SDS011;26336;44.696;10.622;2023-02-28T13:44:42;21.83;;;16.10;;
40637;SDS011;26336;44.696;10.622;2023-02-28T13:47:22;21.87;;;15.23;;
40637;SDS011;26336;44.696;10.622;2023-02-28T13:53:48;19.53;;;14.83;;
40637;SDS011;26336;44.696;10.622;2023-02-28T14:00:45;21.50;;;16.33;;
40637;SDS011;26336;44.696;10.622;2023-02-28T14:04:46;22.43;;;15.60;;
40637;SDS011;26336;44.696;10.622;2023-02-28T14:07:49;28.40;;;17.73;;
40637;SDS011;26336;44.696;10.622;2023-02-28T14:11:03;20.70;;;15.53;;
40637;SDS011;26336;44.696;10.622;2023-02-28T14:17:39;19.97;;;15.80;;
40637;SDS011;26336;44.696;10.622;2023-02-28T14:20:45;18.77;;;15.73;;
40637;SDS011;26336;44.696;10.622;2023-02-28T14:31:58;24.63;;;15.47;;
40637;SDS011;26336;44.696;10.622;2023-02-28T14:38:25;20.00;;;16.80;;
40637;SDS011;26336;44.696;10.622;2023-02-28T14:41:37;22.33;;;17.30;;
40637;SDS011;26336;44.696;10.622;2023-02-28T14:44:43;20.83;;;15.73;;
40637;SDS011;26336;44.696;10.622;2023-02-28T14:48:00;18.50;;;15.10;;
40637;SDS011;26336;44.696;10.622;2023-02-28T14:51:06;20.27;;;15.73;;
40637;SDS011;26336;44.696;10.622;2023-02-28T14:54:13;22.23;;;16.80;;
40637;SDS011;26336;44.696;10.622;2023-02-28T15:00:47;21.77;;;16.20;;
40637;SDS011;26336;44.696;10.622;2023-02-28T15:04:00;21.67;;;16.70;;
40637;SDS011;26336;44.696;10.622;2023-02-28T15:07:07;22.73;;;17.63;;
40637;SDS011;26336;44.696;10.622;2023-02-28T15:13:26;24.43;;;18.47;;
40637;SDS011;26336;44.696;10.622;2023-02-28T15:16:41;25.73;;;16.93;;
40637;SDS011;26336;44.696;10.622;2023-02-28T15:19:48;20.17;;;16.30;;
40637;SDS011;26336;44.696;10.622;2023-02-28T15:22:55;22.97;;;17.13;;
40637;SDS011;26336;44.696;10.622;2023-02-28T15:26:00;23.80;;;17.53;;
40637;SDS011;26336;44.696;10.622;2023-02-28T15:29:10;21.03;;;16.77;;
40637;SDS011;26336;44.696;10.622;2023-02-28T15:32:28;22.37;;;15.60;;
40637;SDS011;26336;44.696;10.622;2023-02-28T15:35:32;23.30;;;17.00;;
40637;SDS011;26336;44.696;10.622;2023-02-28T15:38:37;23.17;;;16.10;;
40637;SDS011;26336;44.696;10.622;2023-02-28T15:41:41;20.37;;;16.67;;
40637;SDS011;26336;44.696;10.622;2023-02-28T15:44:45;23.87;;;18.40;;
40637;SDS011;26336;44.696;10.622;2023-02-28T15:47:49;22.80;;;17.37;;
40637;SDS011;26336;44.696;10.622;2023-02-28T15:50:55;24.60;;;17.97;;
40637;SDS011;26336;44.696;10.622;2023-02-28T15:54:04;23.57;;;17.33;;
40637;SDS011;26336;44.696;10.622;2023-02-28T15:57:13;24.43;;;18.30;;
40637;SDS011;26336;44.696;10.622;2023-02-28T16:00:26;21.60;;;17.50;;
40637;SDS011;26336;44.696;10.622;2023-02-28T16:03:51;25.27;;;18.43;;
40637;SDS011;26336;44.696;10.622;2023-02-28T16:10:01;24.83;;;17.13;;
40637;SDS011;26336;44.696;10.622;2023-02-28T16:13:06;22.43;;;16.47;;
40637;SDS011;26336;44.696;10.622;2023-02-28T16:16:16;24.07;;;18.03;;
40637;SDS011;26336;44.696;10.622;2023-02-28T16:19:22;24.30;;;17.87;;
40637;SDS011;26336;44.696;10.622;2023-02-28T16:22:26;23.83;;;18.30;;
40637;SDS011;26336;44.696;10.622;2023-02-28T16:25:38;22.77;;;17.27;;
40637;SDS011;26336;44.696;10.622;2023-02-28T16:28:44;25.87;;;18.83;;
40637;SDS011;26336;44.696;10.622;2023-02-28T16:31:49;23.70;;;17.13;;
40637;SDS011;26336;44.696;10.622;2023-02-28T16:34:53;24.37;;;18.13;;
40637;SDS011;26336;44.696;10.622;2023-02-28T16:37:56;22.30;;;16.83;;
40637;SDS011;26336;44.696;10.622;2023-02-28T16:41:00;26.43;;;18.77;;
40637;SDS011;26336;44.696;10.622;2023-02-28T16:44:04;27.13;;;18.57;;
40637;SDS011;26336;44.696;10.622;2023-02-28T16:47:16;25.37;;;18.97;;
40637;SDS011;26336;44.696;10.622;2023-02-28T16:50:21;26.50;;;18.00;;
40637;SDS011;26336;44.696;10.622;2023-02-28T16:53:27;19.57;;;16.83;;
40637;SDS011;26336;44.696;10.622;2023-02-28T16:56:31;23.00;;;18.03;;
40637;SDS011;26336;44.696;10.622;2023-02-28T16:59:36;25.90;;;18.53;;
40637;SDS011;26336;44.696;10.622;2023-02-28T17:02:40;23.63;;;18.53;;
40637;SDS011;26336;44.696;10.622;2023-02-28T17:05:44;24.70;;;18.70;;
40637;SDS011;26336;44.696;10.622;2023-02-28T17:08:49;25.17;;;19.43;;
40637;SDS011;26336;44.696;10.622;2023-02-28T17:11:54;26.10;;;18.60;;
40637;SDS011;26336;44.696;10.622;2023-02-28T17:14:59;29.17;;;19.57;;
40637;SDS011;26336;44.696;10.622;2023-02-28T17:18:03;23.67;;;18.97;;
40637;SDS011;26336;44.696;10.622;2023-02-28T17:21:12;28.70;;;20.70;;
40637;SDS011;26336;44.696;10.622;2023-02-28T17:24:17;27.03;;;20.67;;
40637;SDS011;26336;44.696;10.622;2023-02-28T17:27:23;29.87;;;22.13;;
40637;SDS011;26336;44.696;10.622;2023-02-28T17:30:27;26.97;;;20.10;;
40637;SDS011;26336;44.696;10.622;2023-02-28T17:33:31;27.93;;;20.43;;
40637;SDS011;26336;44.696;10.622;2023-02-28T17:36:35;26.80;;;19.63;;
40637;SDS011;26336;44.696;10.622;2023-02-28T17:39:41;29.37;;;21.37;;
40637;SDS011;26336;44.696;10.622;2023-02-28T17:42:45;25.03;;;19.83;;
40637;SDS011;26336;44.696;10.622;2023-02-28T17:45:49;28.40;;;21.37;;
40637;SDS011;26336;44.696;10.622;2023-02-28T17:48:53;32.13;;;21.60;;
40637;SDS011;26336;44.696;10.622;2023-02-28T17:51:57;28.43;;;20.97;;
40637;SDS011;26336;44.696;10.622;2023-02-28T17:55:02;29.27;;;21.17;;
40637;SDS011;26336;44.696;10.622;2023-02-28T17:58:08;29.03;;;21.37;;
40637;SDS011;26336;44.696;10.622;2023-02-28T18:01:14;26.93;;;20.67;;
40637;SDS011;26336;44.696;10.622;2023-02-28T18:04:19;27.73;;;20.00;;
40637;SDS011;26336;44.696;10.622;2023-02-28T18:07:23;25.53;;;19.80;;
40637;SDS011;26336;44.696;10.622;2023-02-28T18:10:28;28.50;;;20.77;;
40637;SDS011;26336;44.696;10.622;2023-02-28T18:13:32;26.80;;;19.77;;
40637;SDS011;26336;44.696;10.622;2023-02-28T18:16:36;31.40;;;22.17;;
40637;SDS011;26336;44.696;10.622;2023-02-28T18:19:41;32.43;;;22.70;;
40637;SDS011;26336;44.696;10.622;2023-02-28T18:22:45;28.23;;;22.20;;
40637;SDS011;26336;44.696;10.622;2023-02-28T18:25:50;29.47;;;20.40;;
40637;SDS011;26336;44.696;10.622;2023-02-28T18:28:57;26.73;;;20.80;;
40637;SDS011;26336;44.696;10.622;2023-02-28T18:32:01;30.47;;;22.73;;
40637;SDS011;26336;44.696;10.622;2023-02-28T18:35:06;31.57;;;23.63;;
40637;SDS011;26336;44.696;10.622;2023-02-28T18:38:14;33.53;;;23.00;;
40637;SDS011;26336;44.696;10.622;2023-02-28T18:41:24;29.83;;;21.57;;
40637;SDS011;26336;44.696;10.622;2023-02-28T18:44:31;30.63;;;21.87;;
40637;SDS011;26336;44.696;10.622;2023-02-28T18:47:35;32.63;;;22.93;;
40637;SDS011;26336;44.696;10.622;2023-02-28T18:50:40;33.53;;;21.77;;
40637;SDS011;26336;44.696;10.622;2023-02-28T18:53:44;32.73;;;22.43;;
40637;SDS011;26336;44.696;10.622;2023-02-28T18:56:49;30.97;;;22.17;;
40637;SDS011;26336;44.696;10.622;2023-02-28T18:59:53;32.03;;;23.40;;
40637;SDS011;26336;44.696;10.622;2023-02-28T19:02:56;30.07;;;21.73;;
40637;SDS011;26336;44.696;10.622;2023-02-28T19:06:01;30.23;;;22.60;;
40637;SDS011;26336;44.696;10.622;2023-02-28T19:09:08;30.53;;;22.33;;
40637;SDS011;26336;44.696;10.622;2023-02-28T19:12:13;32.53;;;22.47;;
40637;SDS011;26336;44.696;10.622;2023-02-28T19:15:19;31.30;;;23.20;;
40637;SDS011;26336;44.696;10.622;2023-02-28T19:18:23;30.50;;;22.53;;
40637;SDS011;26336;44.696;10.622;2023-02-28T19:21:27;33.23;;;23.17;;
40637;SDS011;26336;44.696;10.622;2023-02-28T19:24:31;30.53;;;21.97;;
40637;SDS011;26336;44.696;10.622;2023-02-28T19:27:35;32.53;;;23.33;;
40637;SDS011;26336;44.696;10.622;2023-02-28T19:30:39;29.40;;;22.53;;
40637;SDS011;26336;44.696;10.622;2023-02-28T19:33:48;31.00;;;22.67;;
40637;SDS011;26336;44.696;10.622;2023-02-28T19:36:55;31.80;;;21.73;;
40637;SDS011;26336;44.696;10.622;2023-02-28T19:39:59;33.67;;;24.70;;
40637;SDS011;26336;44.696;10.622;2023-02-28T19:43:03;33.97;;;23.67;;
40637;SDS011;26336;44.696;10.622;2023-02-28T19:46:08;35.43;;;23.70;;
40637;SDS011;26336;44.696;10.622;2023-02-28T19:49:12;35.83;;;25.03;;
40637;SDS011;26336;44.696;10.622;2023-02-28T19:52:16;33.20;;;24.00;;
40637;SDS011;26336;44.696;10.622;2023-02-28T19:55:20;35.10;;;23.77;;
40637;SDS011;26336;44.696;10.622;2023-02-28T19:58:25;32.57;;;22.47;;
40637;SDS011;26336;44.696;10.622;2023-02-28T20:01:30;36.33;;;25.23;;
40637;SDS011;26336;44.696;10.622;2023-02-28T20:04:34;35.57;;;24.30;;
40637;SDS011;26336;44.696;10.622;2023-02-28T20:07:38;29.97;;;22.63;;
40637;SDS011;26336;44.696;10.622;2023-02-28T20:10:42;36.17;;;25.17;;
40637;SDS011;26336;44.696;10.622;2023-02-28T20:13:46;37.03;;;26.47;;
40637;SDS011;26336;44.696;10.622;2023-02-28T20:16:50;37.93;;;25.90;;
40637;SDS011;26336;44.696;10.622;2023-02-28T20:19:56;32.93;;;23.03;;
40637;SDS011;26336;44.696;10.622;2023-02-28T20:23:00;37.63;;;25.77;;
40637;SDS011;26336;44.696;10.622;2023-02-28T20:26:04;31.53;;;24.00;;